Provost, Canada
Current Conditions -  °F | °C
As of 8:00 AM on Saturday 25 Oct 2014 (Local Time) from CYLL Reporting Station
Few Clouds Few Clouds  
Wind Chill: 16°   Ceiling: Unl
Heat Index: 25°   Visibility: 15mi
Dew Point: 21°   Wind: 8mph
Humidity: 86%   Direction: 260°W
Pressure: 30"   Gusts: NA
Location:  52.35°N, 110.27°W
Report Text: CYLL 251400Z 26007KT 15SM FEW190 M04/M06 A3000 RMK CI1 SLP195
Loading
Personal Weather Stations






























Interactive Weather Map
Tropical Storm Tracking
New forecast layout! Learn more

10-Day Weather Forecast

Advertisements
Track Severe Weather on mobile